sensor_id;sensor_type;location;lat;lon;timestamp;P1;durP1;ratioP1;P2;durP2;ratioP2
35632;SDS011;21754;48.216;-1.628;2023-04-09T00:01:50;6.13;;;2.50;;
35632;SDS011;21754;48.216;-1.628;2023-04-09T00:04:15;5.28;;;2.58;;
35632;SDS011;21754;48.216;-1.628;2023-04-09T00:06:41;3.08;;;2.83;;
35632;SDS011;21754;48.216;-1.628;2023-04-09T00:09:08;2.88;;;2.58;;
35632;SDS011;21754;48.216;-1.628;2023-04-09T00:11:33;3.08;;;2.58;;
35632;SDS011;21754;48.216;-1.628;2023-04-09T00:14:00;4.93;;;3.03;;
35632;SDS011;21754;48.216;-1.628;2023-04-09T00:16:26;4.80;;;3.92;;
35632;SDS011;21754;48.216;-1.628;2023-04-09T00:18:52;2.53;;;2.25;;
35632;SDS011;21754;48.216;-1.628;2023-04-09T00:21:18;3.42;;;2.70;;
35632;SDS011;21754;48.216;-1.628;2023-04-09T00:23:45;3.80;;;2.35;;
35632;SDS011;21754;48.216;-1.628;2023-04-09T00:26:11;3.38;;;2.85;;
35632;SDS011;21754;48.216;-1.628;2023-04-09T00:28:37;6.20;;;3.15;;
35632;SDS011;21754;48.216;-1.628;2023-04-09T00:31:03;3.33;;;2.83;;
35632;SDS011;21754;48.216;-1.628;2023-04-09T00:33:29;2.92;;;2.65;;
35632;SDS011;21754;48.216;-1.628;2023-04-09T00:35:55;3.30;;;2.88;;
35632;SDS011;21754;48.216;-1.628;2023-04-09T00:38:21;5.28;;;2.63;;
35632;SDS011;21754;48.216;-1.628;2023-04-09T00:40:50;5.60;;;3.25;;
35632;SDS011;21754;48.216;-1.628;2023-04-09T00:43:16;2.72;;;2.45;;
35632;SDS011;21754;48.216;-1.628;2023-04-09T00:45:43;2.63;;;2.42;;
35632;SDS011;21754;48.216;-1.628;2023-04-09T00:48:09;3.88;;;3.15;;
35632;SDS011;21754;48.216;-1.628;2023-04-09T00:50:35;4.30;;;2.78;;
35632;SDS011;21754;48.216;-1.628;2023-04-09T00:53:02;3.92;;;2.60;;
35632;SDS011;21754;48.216;-1.628;2023-04-09T00:55:28;7.43;;;2.92;;
35632;SDS011;21754;48.216;-1.628;2023-04-09T00:57:54;8.32;;;3.72;;
35632;SDS011;21754;48.216;-1.628;2023-04-09T01:00:20;3.95;;;3.00;;
35632;SDS011;21754;48.216;-1.628;2023-04-09T01:02:47;3.80;;;3.25;;
35632;SDS011;21754;48.216;-1.628;2023-04-09T01:05:13;3.38;;;2.65;;
35632;SDS011;21754;48.216;-1.628;2023-04-09T01:08:00;11.63;;;2.60;;
35632;SDS011;21754;48.216;-1.628;2023-04-09T01:10:39;3.03;;;2.55;;
35632;SDS011;21754;48.216;-1.628;2023-04-09T01:15:43;5.78;;;3.45;;
35632;SDS011;21754;48.216;-1.628;2023-04-09T01:18:18;5.07;;;3.38;;
35632;SDS011;21754;48.216;-1.628;2023-04-09T01:20:48;3.55;;;3.13;;
35632;SDS011;21754;48.216;-1.628;2023-04-09T01:23:17;4.95;;;2.83;;
35632;SDS011;21754;48.216;-1.628;2023-04-09T01:30:42;5.60;;;2.92;;
35632;SDS011;21754;48.216;-1.628;2023-04-09T01:33:11;4.25;;;2.97;;
35632;SDS011;21754;48.216;-1.628;2023-04-09T01:35:38;4.73;;;3.67;;
35632;SDS011;21754;48.216;-1.628;2023-04-09T01:38:05;5.03;;;4.15;;
35632;SDS011;21754;48.216;-1.628;2023-04-09T01:40:31;3.78;;;3.47;;
35632;SDS011;21754;48.216;-1.628;2023-04-09T01:42:57;5.72;;;3.13;;
35632;SDS011;21754;48.216;-1.628;2023-04-09T01:45:24;5.67;;;3.63;;
35632;SDS011;21754;48.216;-1.628;2023-04-09T01:47:50;4.30;;;3.22;;
35632;SDS011;21754;48.216;-1.628;2023-04-09T01:50:17;4.53;;;3.20;;
35632;SDS011;21754;48.216;-1.628;2023-04-09T01:52:43;3.30;;;2.92;;
35632;SDS011;21754;48.216;-1.628;2023-04-09T01:55:09;4.97;;;3.60;;
35632;SDS011;21754;48.216;-1.628;2023-04-09T01:57:35;5.68;;;3.50;;
35632;SDS011;21754;48.216;-1.628;2023-04-09T02:00:01;8.57;;;3.65;;
35632;SDS011;21754;48.216;-1.628;2023-04-09T02:02:30;5.85;;;3.50;;
35632;SDS011;21754;48.216;-1.628;2023-04-09T02:05:00;6.63;;;3.35;;
35632;SDS011;21754;48.216;-1.628;2023-04-09T02:09:59;5.15;;;3.97;;
35632;SDS011;21754;48.216;-1.628;2023-04-09T02:12:26;7.88;;;4.70;;
35632;SDS011;21754;48.216;-1.628;2023-04-09T02:14:52;5.75;;;4.10;;
35632;SDS011;21754;48.216;-1.628;2023-04-09T02:17:19;5.90;;;3.97;;
35632;SDS011;21754;48.216;-1.628;2023-04-09T02:19:46;5.15;;;3.35;;
35632;SDS011;21754;48.216;-1.628;2023-04-09T02:22:12;6.45;;;3.05;;
35632;SDS011;21754;48.216;-1.628;2023-04-09T02:24:39;7.85;;;3.70;;
35632;SDS011;21754;48.216;-1.628;2023-04-09T02:27:05;7.63;;;4.50;;
35632;SDS011;21754;48.216;-1.628;2023-04-09T02:29:31;5.03;;;3.40;;
35632;SDS011;21754;48.216;-1.628;2023-04-09T02:31:57;6.93;;;3.70;;
35632;SDS011;21754;48.216;-1.628;2023-04-09T02:34:23;5.93;;;4.32;;
35632;SDS011;21754;48.216;-1.628;2023-04-09T02:36:50;7.30;;;4.45;;
35632;SDS011;21754;48.216;-1.628;2023-04-09T02:39:16;3.70;;;3.38;;
35632;SDS011;21754;48.216;-1.628;2023-04-09T02:41:42;6.35;;;3.95;;
35632;SDS011;21754;48.216;-1.628;2023-04-09T02:44:08;6.20;;;4.05;;
35632;SDS011;21754;48.216;-1.628;2023-04-09T02:46:34;8.38;;;4.95;;
35632;SDS011;21754;48.216;-1.628;2023-04-09T02:49:00;8.93;;;3.90;;
35632;SDS011;21754;48.216;-1.628;2023-04-09T02:51:26;7.50;;;4.68;;
35632;SDS011;21754;48.216;-1.628;2023-04-09T02:53:52;6.57;;;4.20;;
35632;SDS011;21754;48.216;-1.628;2023-04-09T02:56:18;4.63;;;3.95;;
35632;SDS011;21754;48.216;-1.628;2023-04-09T02:58:44;5.85;;;5.13;;
35632;SDS011;21754;48.216;-1.628;2023-04-09T03:01:13;4.43;;;3.88;;
35632;SDS011;21754;48.216;-1.628;2023-04-09T03:03:39;8.40;;;4.93;;
35632;SDS011;21754;48.216;-1.628;2023-04-09T03:06:06;4.97;;;4.43;;
35632;SDS011;21754;48.216;-1.628;2023-04-09T03:08:32;10.25;;;5.10;;
35632;SDS011;21754;48.216;-1.628;2023-04-09T03:10:58;5.97;;;4.75;;
35632;SDS011;21754;48.216;-1.628;2023-04-09T03:13:24;6.47;;;4.05;;
35632;SDS011;21754;48.216;-1.628;2023-04-09T03:15:52;7.05;;;5.05;;
35632;SDS011;21754;48.216;-1.628;2023-04-09T03:18:18;8.30;;;4.85;;
35632;SDS011;21754;48.216;-1.628;2023-04-09T03:20:44;10.35;;;5.07;;
35632;SDS011;21754;48.216;-1.628;2023-04-09T03:23:10;6.72;;;4.50;;
35632;SDS011;21754;48.216;-1.628;2023-04-09T03:25:36;4.35;;;3.95;;
35632;SDS011;21754;48.216;-1.628;2023-04-09T03:28:02;7.90;;;4.65;;
35632;SDS011;21754;48.216;-1.628;2023-04-09T03:30:28;5.88;;;3.95;;
35632;SDS011;21754;48.216;-1.628;2023-04-09T03:32:54;5.15;;;3.90;;
35632;SDS011;21754;48.216;-1.628;2023-04-09T03:35:20;6.75;;;4.55;;
35632;SDS011;21754;48.216;-1.628;2023-04-09T03:37:46;9.48;;;4.72;;
35632;SDS011;21754;48.216;-1.628;2023-04-09T03:40:12;6.45;;;4.13;;
35632;SDS011;21754;48.216;-1.628;2023-04-09T03:42:38;6.13;;;3.88;;
35632;SDS011;21754;48.216;-1.628;2023-04-09T03:45:04;6.47;;;4.97;;
35632;SDS011;21754;48.216;-1.628;2023-04-09T03:47:31;12.70;;;4.85;;
35632;SDS011;21754;48.216;-1.628;2023-04-09T03:49:57;9.13;;;4.93;;
35632;SDS011;21754;48.216;-1.628;2023-04-09T03:52:23;9.82;;;5.63;;
35632;SDS011;21754;48.216;-1.628;2023-04-09T03:54:49;7.50;;;5.85;;
35632;SDS011;21754;48.216;-1.628;2023-04-09T03:57:15;9.32;;;4.78;;
35632;SDS011;21754;48.216;-1.628;2023-04-09T03:59:41;6.45;;;4.00;;
35632;SDS011;21754;48.216;-1.628;2023-04-09T04:02:07;5.90;;;4.50;;
35632;SDS011;21754;48.216;-1.628;2023-04-09T04:04:33;6.63;;;5.20;;
35632;SDS011;21754;48.216;-1.628;2023-04-09T04:06:59;4.45;;;4.05;;
35632;SDS011;21754;48.216;-1.628;2023-04-09T04:09:27;5.15;;;4.43;;
35632;SDS011;21754;48.216;-1.628;2023-04-09T04:11:53;7.68;;;4.00;;
35632;SDS011;21754;48.216;-1.628;2023-04-09T04:14:22;5.53;;;4.63;;
35632;SDS011;21754;48.216;-1.628;2023-04-09T04:16:48;5.05;;;4.50;;
35632;SDS011;21754;48.216;-1.628;2023-04-09T04:19:15;4.68;;;3.95;;
35632;SDS011;21754;48.216;-1.628;2023-04-09T04:21:41;4.32;;;4.00;;
35632;SDS011;21754;48.216;-1.628;2023-04-09T04:24:07;8.63;;;4.75;;
35632;SDS011;21754;48.216;-1.628;2023-04-09T04:26:33;6.47;;;5.35;;
35632;SDS011;21754;48.216;-1.628;2023-04-09T04:28:59;5.45;;;4.80;;
35632;SDS011;21754;48.216;-1.628;2023-04-09T04:31:25;7.47;;;4.80;;
35632;SDS011;21754;48.216;-1.628;2023-04-09T04:33:51;7.22;;;5.45;;
35632;SDS011;21754;48.216;-1.628;2023-04-09T04:36:17;7.00;;;4.72;;
35632;SDS011;21754;48.216;-1.628;2023-04-09T04:38:43;7.45;;;4.43;;
35632;SDS011;21754;48.216;-1.628;2023-04-09T04:41:09;7.05;;;4.43;;
35632;SDS011;21754;48.216;-1.628;2023-04-09T04:43:36;7.78;;;5.28;;
35632;SDS011;21754;48.216;-1.628;2023-04-09T04:46:02;6.75;;;5.47;;
35632;SDS011;21754;48.216;-1.628;2023-04-09T04:48:28;6.50;;;5.30;;
35632;SDS011;21754;48.216;-1.628;2023-04-09T04:50:55;5.25;;;4.38;;
35632;SDS011;21754;48.216;-1.628;2023-04-09T04:53:21;5.53;;;5.03;;
35632;SDS011;21754;48.216;-1.628;2023-04-09T04:55:47;8.40;;;5.25;;
35632;SDS011;21754;48.216;-1.628;2023-04-09T04:58:13;5.95;;;4.85;;
35632;SDS011;21754;48.216;-1.628;2023-04-09T05:00:39;6.97;;;4.97;;
35632;SDS011;21754;48.216;-1.628;2023-04-09T05:03:05;8.60;;;5.47;;
35632;SDS011;21754;48.216;-1.628;2023-04-09T05:05:31;4.97;;;4.47;;
35632;SDS011;21754;48.216;-1.628;2023-04-09T05:07:57;5.35;;;4.70;;
35632;SDS011;21754;48.216;-1.628;2023-04-09T05:10:24;8.65;;;5.55;;
35632;SDS011;21754;48.216;-1.628;2023-04-09T05:12:50;7.05;;;4.90;;
35632;SDS011;21754;48.216;-1.628;2023-04-09T05:15:16;8.15;;;4.97;;
35632;SDS011;21754;48.216;-1.628;2023-04-09T05:17:42;6.70;;;4.75;;
35632;SDS011;21754;48.216;-1.628;2023-04-09T05:20:09;10.00;;;6.13;;
35632;SDS011;21754;48.216;-1.628;2023-04-09T05:22:35;6.90;;;5.05;;
35632;SDS011;21754;48.216;-1.628;2023-04-09T05:25:01;10.85;;;6.07;;
35632;SDS011;21754;48.216;-1.628;2023-04-09T05:27:27;9.15;;;6.03;;
35632;SDS011;21754;48.216;-1.628;2023-04-09T05:29:53;9.43;;;5.63;;
35632;SDS011;21754;48.216;-1.628;2023-04-09T05:32:19;5.75;;;5.07;;
35632;SDS011;21754;48.216;-1.628;2023-04-09T05:34:45;7.90;;;5.68;;
35632;SDS011;21754;48.216;-1.628;2023-04-09T05:37:11;7.20;;;5.85;;
35632;SDS011;21754;48.216;-1.628;2023-04-09T05:39:37;8.40;;;4.95;;
35632;SDS011;21754;48.216;-1.628;2023-04-09T05:42:04;6.32;;;4.55;;
35632;SDS011;21754;48.216;-1.628;2023-04-09T05:44:30;11.05;;;6.18;;
35632;SDS011;21754;48.216;-1.628;2023-04-09T05:46:56;6.43;;;4.65;;
35632;SDS011;21754;48.216;-1.628;2023-04-09T05:49:22;11.40;;;5.38;;
35632;SDS011;21754;48.216;-1.628;2023-04-09T05:51:49;11.15;;;7.20;;
35632;SDS011;21754;48.216;-1.628;2023-04-09T05:54:15;12.32;;;6.88;;
35632;SDS011;21754;48.216;-1.628;2023-04-09T05:56:44;8.20;;;5.63;;
35632;SDS011;21754;48.216;-1.628;2023-04-09T05:59:10;8.63;;;5.40;;
35632;SDS011;21754;48.216;-1.628;2023-04-09T06:01:36;6.65;;;5.15;;
35632;SDS011;21754;48.216;-1.628;2023-04-09T06:04:02;5.63;;;5.03;;
35632;SDS011;21754;48.216;-1.628;2023-04-09T06:06:28;8.07;;;5.65;;
35632;SDS011;21754;48.216;-1.628;2023-04-09T06:08:54;10.40;;;7.45;;
35632;SDS011;21754;48.216;-1.628;2023-04-09T06:11:20;11.85;;;6.70;;
35632;SDS011;21754;48.216;-1.628;2023-04-09T06:13:46;6.00;;;4.85;;
35632;SDS011;21754;48.216;-1.628;2023-04-09T06:16:13;10.68;;;7.28;;
35632;SDS011;21754;48.216;-1.628;2023-04-09T06:18:39;5.97;;;5.38;;
35632;SDS011;21754;48.216;-1.628;2023-04-09T06:21:06;10.25;;;5.30;;
35632;SDS011;21754;48.216;-1.628;2023-04-09T06:23:35;16.35;;;5.88;;
35632;SDS011;21754;48.216;-1.628;2023-04-09T06:26:01;7.55;;;5.88;;
35632;SDS011;21754;48.216;-1.628;2023-04-09T06:28:27;12.02;;;5.93;;
35632;SDS011;21754;48.216;-1.628;2023-04-09T06:30:54;8.88;;;6.25;;
35632;SDS011;21754;48.216;-1.628;2023-04-09T06:33:20;10.02;;;5.93;;
35632;SDS011;21754;48.216;-1.628;2023-04-09T06:35:46;8.85;;;6.72;;
35632;SDS011;21754;48.216;-1.628;2023-04-09T06:38:13;8.20;;;5.55;;
35632;SDS011;21754;48.216;-1.628;2023-04-09T06:40:39;10.10;;;6.57;;
35632;SDS011;21754;48.216;-1.628;2023-04-09T06:43:05;11.85;;;6.22;;
35632;SDS011;21754;48.216;-1.628;2023-04-09T06:45:31;10.60;;;5.80;;
35632;SDS011;21754;48.216;-1.628;2023-04-09T06:47:58;7.80;;;6.22;;
35632;SDS011;21754;48.216;-1.628;2023-04-09T06:50:24;8.90;;;5.90;;
35632;SDS011;21754;48.216;-1.628;2023-04-09T06:52:50;9.93;;;6.07;;
35632;SDS011;21754;48.216;-1.628;2023-04-09T06:55:16;8.75;;;5.82;;
35632;SDS011;21754;48.216;-1.628;2023-04-09T06:57:42;11.40;;;7.13;;
35632;SDS011;21754;48.216;-1.628;2023-04-09T07:00:08;9.80;;;5.75;;
35632;SDS011;21754;48.216;-1.628;2023-04-09T07:02:35;12.43;;;6.05;;
35632;SDS011;21754;48.216;-1.628;2023-04-09T07:05:02;13.05;;;6.15;;
35632;SDS011;21754;48.216;-1.628;2023-04-09T07:07:29;12.38;;;7.00;;
35632;SDS011;21754;48.216;-1.628;2023-04-09T07:09:55;9.15;;;6.97;;
35632;SDS011;21754;48.216;-1.628;2023-04-09T07:12:27;8.95;;;5.72;;
35632;SDS011;21754;48.216;-1.628;2023-04-09T07:15:04;9.23;;;6.85;;
35632;SDS011;21754;48.216;-1.628;2023-04-09T07:17:30;10.23;;;7.32;;
35632;SDS011;21754;48.216;-1.628;2023-04-09T07:19:57;11.93;;;6.88;;
35632;SDS011;21754;48.216;-1.628;2023-04-09T07:22:24;11.55;;;6.47;;
35632;SDS011;21754;48.216;-1.628;2023-04-09T07:24:50;7.35;;;5.70;;
35632;SDS011;21754;48.216;-1.628;2023-04-09T07:27:20;26.75;;;7.00;;
35632;SDS011;21754;48.216;-1.628;2023-04-09T07:29:47;8.68;;;6.15;;
35632;SDS011;21754;48.216;-1.628;2023-04-09T07:32:13;9.63;;;7.30;;
35632;SDS011;21754;48.216;-1.628;2023-04-09T07:34:40;7.47;;;6.07;;
35632;SDS011;21754;48.216;-1.628;2023-04-09T07:37:06;11.25;;;7.35;;
35632;SDS011;21754;48.216;-1.628;2023-04-09T07:39:32;11.13;;;7.03;;
35632;SDS011;21754;48.216;-1.628;2023-04-09T07:42:01;12.77;;;7.05;;
35632;SDS011;21754;48.216;-1.628;2023-04-09T07:44:27;14.45;;;7.38;;
35632;SDS011;21754;48.216;-1.628;2023-04-09T07:46:53;11.05;;;7.70;;
35632;SDS011;21754;48.216;-1.628;2023-04-09T07:49:19;11.77;;;7.55;;
35632;SDS011;21754;48.216;-1.628;2023-04-09T07:51:46;9.23;;;6.20;;
35632;SDS011;21754;48.216;-1.628;2023-04-09T07:54:12;14.25;;;7.22;;
35632;SDS011;21754;48.216;-1.628;2023-04-09T07:56:38;11.20;;;7.38;;
35632;SDS011;21754;48.216;-1.628;2023-04-09T07:59:04;12.20;;;6.80;;
35632;SDS011;21754;48.216;-1.628;2023-04-09T08:01:30;8.52;;;6.43;;
35632;SDS011;21754;48.216;-1.628;2023-04-09T08:03:56;13.30;;;6.65;;
35632;SDS011;21754;48.216;-1.628;2023-04-09T08:06:22;7.93;;;6.32;;
35632;SDS011;21754;48.216;-1.628;2023-04-09T08:08:48;10.15;;;7.07;;
35632;SDS011;21754;48.216;-1.628;2023-04-09T08:11:14;14.52;;;6.95;;
35632;SDS011;21754;48.216;-1.628;2023-04-09T08:13:40;8.48;;;5.90;;
35632;SDS011;21754;48.216;-1.628;2023-04-09T08:16:06;8.90;;;5.60;;
35632;SDS011;21754;48.216;-1.628;2023-04-09T08:18:32;12.32;;;6.00;;
35632;SDS011;21754;48.216;-1.628;2023-04-09T08:21:02;7.82;;;5.10;;
35632;SDS011;21754;48.216;-1.628;2023-04-09T08:23:28;8.48;;;6.13;;
35632;SDS011;21754;48.216;-1.628;2023-04-09T08:25:54;7.13;;;6.03;;
35632;SDS011;21754;48.216;-1.628;2023-04-09T08:28:20;7.22;;;5.53;;
35632;SDS011;21754;48.216;-1.628;2023-04-09T08:30:47;13.35;;;6.43;;
35632;SDS011;21754;48.216;-1.628;2023-04-09T08:33:13;6.80;;;6.07;;
35632;SDS011;21754;48.216;-1.628;2023-04-09T08:35:39;10.23;;;6.47;;
35632;SDS011;21754;48.216;-1.628;2023-04-09T08:38:05;7.88;;;5.53;;
35632;SDS011;21754;48.216;-1.628;2023-04-09T08:40:35;8.95;;;6.25;;
35632;SDS011;21754;48.216;-1.628;2023-04-09T08:43:03;7.80;;;5.72;;
35632;SDS011;21754;48.216;-1.628;2023-04-09T08:45:30;13.10;;;7.43;;
35632;SDS011;21754;48.216;-1.628;2023-04-09T08:47:56;7.53;;;5.53;;
35632;SDS011;21754;48.216;-1.628;2023-04-09T08:50:26;8.35;;;6.38;;
35632;SDS011;21754;48.216;-1.628;2023-04-09T08:52:53;7.85;;;5.78;;
35632;SDS011;21754;48.216;-1.628;2023-04-09T08:55:19;7.93;;;5.95;;
35632;SDS011;21754;48.216;-1.628;2023-04-09T08:57:45;8.10;;;6.07;;
35632;SDS011;21754;48.216;-1.628;2023-04-09T09:00:11;7.25;;;4.53;;
35632;SDS011;21754;48.216;-1.628;2023-04-09T09:02:37;14.20;;;5.38;;
35632;SDS011;21754;48.216;-1.628;2023-04-09T09:05:04;9.13;;;6.35;;
35632;SDS011;21754;48.216;-1.628;2023-04-09T09:07:30;7.38;;;5.88;;
35632;SDS011;21754;48.216;-1.628;2023-04-09T09:09:59;7.25;;;5.68;;
35632;SDS011;21754;48.216;-1.628;2023-04-09T09:14:56;11.73;;;6.82;;
35632;SDS011;21754;48.216;-1.628;2023-04-09T09:17:22;9.98;;;6.05;;
35632;SDS011;21754;48.216;-1.628;2023-04-09T09:19:48;9.98;;;5.72;;
35632;SDS011;21754;48.216;-1.628;2023-04-09T09:22:14;14.02;;;4.75;;
35632;SDS011;21754;48.216;-1.628;2023-04-09T09:24:47;8.18;;;5.97;;
35632;SDS011;21754;48.216;-1.628;2023-04-09T09:27:32;6.68;;;4.88;;
35632;SDS011;21754;48.216;-1.628;2023-04-09T09:30:00;11.82;;;4.78;;
35632;SDS011;21754;48.216;-1.628;2023-04-09T09:32:26;8.80;;;4.97;;
35632;SDS011;21754;48.216;-1.628;2023-04-09T09:35:02;6.85;;;4.25;;
35632;SDS011;21754;48.216;-1.628;2023-04-09T09:37:29;9.52;;;4.30;;
35632;SDS011;21754;48.216;-1.628;2023-04-09T09:39:55;6.93;;;4.55;;
35632;SDS011;21754;48.216;-1.628;2023-04-09T09:42:21;7.57;;;4.10;;
35632;SDS011;21754;48.216;-1.628;2023-04-09T09:44:47;6.80;;;3.85;;
35632;SDS011;21754;48.216;-1.628;2023-04-09T09:47:14;4.95;;;4.45;;
35632;SDS011;21754;48.216;-1.628;2023-04-09T09:49:42;5.57;;;4.00;;
35632;SDS011;21754;48.216;-1.628;2023-04-09T09:52:09;3.65;;;3.35;;
35632;SDS011;21754;48.216;-1.628;2023-04-09T09:54:39;5.15;;;4.00;;
35632;SDS011;21754;48.216;-1.628;2023-04-09T09:57:08;4.35;;;3.95;;
35632;SDS011;21754;48.216;-1.628;2023-04-09T09:59:39;5.80;;;3.30;;
35632;SDS011;21754;48.216;-1.628;2023-04-09T10:02:07;5.88;;;3.72;;
35632;SDS011;21754;48.216;-1.628;2023-04-09T10:04:36;3.83;;;3.00;;
35632;SDS011;21754;48.216;-1.628;2023-04-09T10:07:03;5.47;;;3.30;;
35632;SDS011;21754;48.216;-1.628;2023-04-09T10:09:30;5.40;;;4.00;;
35632;SDS011;21754;48.216;-1.628;2023-04-09T10:11:56;6.50;;;3.42;;
35632;SDS011;21754;48.216;-1.628;2023-04-09T10:14:23;2.65;;;2.45;;
35632;SDS011;21754;48.216;-1.628;2023-04-09T10:16:51;12.05;;;3.30;;
35632;SDS011;21754;48.216;-1.628;2023-04-09T10:19:17;4.85;;;3.63;;
35632;SDS011;21754;48.216;-1.628;2023-04-09T10:24:12;5.53;;;3.28;;
35632;SDS011;21754;48.216;-1.628;2023-04-09T10:26:40;4.03;;;3.72;;
35632;SDS011;21754;48.216;-1.628;2023-04-09T10:29:10;5.88;;;3.83;;
35632;SDS011;21754;48.216;-1.628;2023-04-09T10:31:47;5.22;;;3.75;;
35632;SDS011;21754;48.216;-1.628;2023-04-09T10:34:17;5.03;;;3.28;;
35632;SDS011;21754;48.216;-1.628;2023-04-09T10:36:44;6.13;;;4.20;;
35632;SDS011;21754;48.216;-1.628;2023-04-09T10:39:11;4.95;;;3.92;;
35632;SDS011;21754;48.216;-1.628;2023-04-09T10:41:37;7.68;;;2.60;;
35632;SDS011;21754;48.216;-1.628;2023-04-09T10:44:05;3.92;;;2.88;;
35632;SDS011;21754;48.216;-1.628;2023-04-09T10:46:34;2.70;;;2.38;;
35632;SDS011;21754;48.216;-1.628;2023-04-09T10:49:10;2.38;;;2.10;;
35632;SDS011;21754;48.216;-1.628;2023-04-09T10:51:37;7.53;;;4.40;;
35632;SDS011;21754;48.216;-1.628;2023-04-09T11:01:59;2.75;;;2.55;;
35632;SDS011;21754;48.216;-1.628;2023-04-09T11:04:28;3.03;;;1.95;;
35632;SDS011;21754;48.216;-1.628;2023-04-09T11:06:59;3.80;;;1.92;;
35632;SDS011;21754;48.216;-1.628;2023-04-09T11:09:26;3.25;;;2.75;;
35632;SDS011;21754;48.216;-1.628;2023-04-09T11:11:52;4.80;;;3.15;;
35632;SDS011;21754;48.216;-1.628;2023-04-09T11:14:18;3.25;;;2.25;;
35632;SDS011;21754;48.216;-1.628;2023-04-09T11:16:48;2.40;;;2.17;;
35632;SDS011;21754;48.216;-1.628;2023-04-09T11:19:14;3.45;;;2.67;;
35632;SDS011;21754;48.216;-1.628;2023-04-09T11:21:40;2.55;;;2.35;;
35632;SDS011;21754;48.216;-1.628;2023-04-09T11:24:11;4.53;;;2.60;;
35632;SDS011;21754;48.216;-1.628;2023-04-09T11:26:37;3.50;;;2.50;;
35632;SDS011;21754;48.216;-1.628;2023-04-09T11:29:03;3.83;;;1.90;;
35632;SDS011;21754;48.216;-1.628;2023-04-09T11:33:57;4.78;;;2.95;;
35632;SDS011;21754;48.216;-1.628;2023-04-09T11:36:22;3.88;;;3.05;;
35632;SDS011;21754;48.216;-1.628;2023-04-09T11:38:49;7.32;;;2.85;;
35632;SDS011;21754;48.216;-1.628;2023-04-09T11:41:15;4.05;;;3.05;;
35632;SDS011;21754;48.216;-1.628;2023-04-09T11:43:41;4.95;;;3.22;;
35632;SDS011;21754;48.216;-1.628;2023-04-09T11:46:07;2.88;;;2.65;;
35632;SDS011;21754;48.216;-1.628;2023-04-09T11:48:33;2.42;;;2.22;;
35632;SDS011;21754;48.216;-1.628;2023-04-09T11:51:00;3.95;;;2.40;;
35632;SDS011;21754;48.216;-1.628;2023-04-09T11:55:53;6.70;;;2.28;;
35632;SDS011;21754;48.216;-1.628;2023-04-09T11:58:24;12.95;;;4.03;;
35632;SDS011;21754;48.216;-1.628;2023-04-09T12:00:54;8.45;;;2.55;;
35632;SDS011;21754;48.216;-1.628;2023-04-09T12:03:26;2.25;;;2.05;;
35632;SDS011;21754;48.216;-1.628;2023-04-09T12:05:52;2.30;;;2.10;;
35632;SDS011;21754;48.216;-1.628;2023-04-09T12:08:21;2.63;;;2.42;;
35632;SDS011;21754;48.216;-1.628;2023-04-09T12:10:48;8.07;;;2.58;;
35632;SDS011;21754;48.216;-1.628;2023-04-09T12:13:16;2.90;;;2.67;;
35632;SDS011;21754;48.216;-1.628;2023-04-09T12:15:42;4.10;;;2.90;;
35632;SDS011;21754;48.216;-1.628;2023-04-09T12:18:11;4.32;;;2.60;;
35632;SDS011;21754;48.216;-1.628;2023-04-09T12:20:38;3.20;;;1.63;;
35632;SDS011;21754;48.216;-1.628;2023-04-09T12:23:05;1.65;;;1.55;;
35632;SDS011;21754;48.216;-1.628;2023-04-09T12:25:36;2.30;;;1.25;;
35632;SDS011;21754;48.216;-1.628;2023-04-09T12:28:02;2.70;;;2.50;;
35632;SDS011;21754;48.216;-1.628;2023-04-09T12:30:29;3.22;;;1.52;;
35632;SDS011;21754;48.216;-1.628;2023-04-09T12:32:55;4.53;;;1.85;;
35632;SDS011;21754;48.216;-1.628;2023-04-09T12:35:21;3.08;;;1.98;;
35632;SDS011;21754;48.216;-1.628;2023-04-09T12:37:47;2.85;;;2.53;;
35632;SDS011;21754;48.216;-1.628;2023-04-09T12:40:13;3.00;;;1.25;;
35632;SDS011;21754;48.216;-1.628;2023-04-09T12:42:40;3.85;;;1.75;;
35632;SDS011;21754;48.216;-1.628;2023-04-09T12:45:07;2.08;;;1.88;;
35632;SDS011;21754;48.216;-1.628;2023-04-09T12:47:34;3.28;;;2.17;;
35632;SDS011;21754;48.216;-1.628;2023-04-09T12:50:00;4.60;;;2.22;;
35632;SDS011;21754;48.216;-1.628;2023-04-09T12:52:26;1.67;;;1.58;;
35632;SDS011;21754;48.216;-1.628;2023-04-09T12:54:52;2.42;;;1.70;;
35632;SDS011;21754;48.216;-1.628;2023-04-09T12:57:18;2.45;;;1.80;;
35632;SDS011;21754;48.216;-1.628;2023-04-09T12:59:44;1.98;;;1.60;;
35632;SDS011;21754;48.216;-1.628;2023-04-09T13:02:10;1.73;;;1.60;;
35632;SDS011;21754;48.216;-1.628;2023-04-09T13:04:36;1.83;;;1.52;;
35632;SDS011;21754;48.216;-1.628;2023-04-09T13:07:02;2.20;;;1.02;;
35632;SDS011;21754;48.216;-1.628;2023-04-09T13:09:28;1.27;;;1.17;;
35632;SDS011;21754;48.216;-1.628;2023-04-09T13:11:54;3.13;;;1.50;;
35632;SDS011;21754;48.216;-1.628;2023-04-09T13:14:20;2.08;;;1.88;;
35632;SDS011;21754;48.216;-1.628;2023-04-09T13:16:46;1.20;;;1.10;;
35632;SDS011;21754;48.216;-1.628;2023-04-09T13:19:12;1.55;;;1.40;;
35632;SDS011;21754;48.216;-1.628;2023-04-09T13:21:38;1.30;;;1.20;;
35632;SDS011;21754;48.216;-1.628;2023-04-09T13:24:04;1.90;;;1.55;;
35632;SDS011;21754;48.216;-1.628;2023-04-09T13:26:30;3.25;;;1.40;;
35632;SDS011;21754;48.216;-1.628;2023-04-09T13:28:56;1.25;;;1.02;;
35632;SDS011;21754;48.216;-1.628;2023-04-09T13:31:23;1.67;;;1.40;;
35632;SDS011;21754;48.216;-1.628;2023-04-09T13:33:49;0.95;;;0.95;;
35632;SDS011;21754;48.216;-1.628;2023-04-09T13:36:15;1.10;;;1.00;;
35632;SDS011;21754;48.216;-1.628;2023-04-09T13:38:41;2.67;;;0.80;;
35632;SDS011;21754;48.216;-1.628;2023-04-09T13:41:07;2.33;;;1.33;;
35632;SDS011;21754;48.216;-1.628;2023-04-09T13:43:33;2.97;;;2.38;;
35632;SDS011;21754;48.216;-1.628;2023-04-09T13:45:59;1.63;;;1.05;;
35632;SDS011;21754;48.216;-1.628;2023-04-09T13:48:26;1.75;;;1.52;;
35632;SDS011;21754;48.216;-1.628;2023-04-09T13:50:52;1.35;;;1.17;;
35632;SDS011;21754;48.216;-1.628;2023-04-09T13:53:18;1.13;;;1.13;;
35632;SDS011;21754;48.216;-1.628;2023-04-09T13:58:12;4.72;;;1.30;;
35632;SDS011;21754;48.216;-1.628;2023-04-09T14:00:38;2.60;;;1.67;;
35632;SDS011;21754;48.216;-1.628;2023-04-09T14:03:04;1.63;;;1.40;;
35632;SDS011;21754;48.216;-1.628;2023-04-09T14:05:30;2.38;;;1.35;;
35632;SDS011;21754;48.216;-1.628;2023-04-09T14:07:57;1.90;;;1.20;;
35632;SDS011;21754;48.216;-1.628;2023-04-09T14:10:23;3.65;;;1.48;;
35632;SDS011;21754;48.216;-1.628;2023-04-09T14:12:49;4.45;;;1.55;;
35632;SDS011;21754;48.216;-1.628;2023-04-09T14:15:16;1.45;;;1.35;;
35632;SDS011;21754;48.216;-1.628;2023-04-09T14:17:42;1.50;;;1.40;;
35632;SDS011;21754;48.216;-1.628;2023-04-09T14:20:08;1.35;;;1.25;;
35632;SDS011;21754;48.216;-1.628;2023-04-09T14:22:34;1.35;;;1.25;;
35632;SDS011;21754;48.216;-1.628;2023-04-09T14:25:00;1.70;;;1.55;;
35632;SDS011;21754;48.216;-1.628;2023-04-09T14:27:26;1.50;;;1.08;;
35632;SDS011;21754;48.216;-1.628;2023-04-09T14:29:52;2.15;;;0.93;;
35632;SDS011;21754;48.216;-1.628;2023-04-09T14:32:18;0.93;;;0.90;;
35632;SDS011;21754;48.216;-1.628;2023-04-09T14:34:44;0.85;;;0.85;;
35632;SDS011;21754;48.216;-1.628;2023-04-09T14:37:10;0.75;;;0.75;;
35632;SDS011;21754;48.216;-1.628;2023-04-09T14:39:36;1.20;;;1.20;;
35632;SDS011;21754;48.216;-1.628;2023-04-09T14:42:02;0.70;;;0.70;;
35632;SDS011;21754;48.216;-1.628;2023-04-09T14:44:28;1.80;;;0.60;;
35632;SDS011;21754;48.216;-1.628;2023-04-09T14:46:55;1.10;;;1.10;;
35632;SDS011;21754;48.216;-1.628;2023-04-09T14:49:22;3.97;;;1.05;;
35632;SDS011;21754;48.216;-1.628;2023-04-09T14:51:48;0.85;;;0.85;;
35632;SDS011;21754;48.216;-1.628;2023-04-09T14:54:14;0.77;;;0.77;;
35632;SDS011;21754;48.216;-1.628;2023-04-09T14:56:40;0.80;;;0.80;;
35632;SDS011;21754;48.216;-1.628;2023-04-09T14:59:06;2.13;;;0.95;;
35632;SDS011;21754;48.216;-1.628;2023-04-09T15:01:32;0.75;;;0.70;;